Time;durP1;ratioP1;P1;durP2;ratioP2;P2;SDS_P1;SDS_P2;PMS_P1;PMS_P2;Temp;Humidity;BMP_temperature;BMP_pressure;BME280_temperature;BME280_humidity;BME280_pressure;Samples;Min_cycle;Max_cycle;Signal;HPM_P1;HPM_P2
2023/06/03 00:01:19;;;;;;;10.73;4.07;;;;;;;17.98;42.42;100681.44;4109323;28;20069;-72
2023/06/03 00:03:22;;;;;;;13.77;3.58;;;;;;;17.91;42.60;100681.50;4109306;28;20035;-72
2023/06/03 00:05:25;;;;;;;8.70;3.70;;;;;;;17.86;42.72;100685.94;4107334;28;20055;-72
2023/06/03 00:07:28;;;;;;;10.82;3.25;;;;;;;17.82;43.08;100678.09;4112740;28;20396;-72
2023/06/03 00:09:30;;;;;;;8.57;3.60;;;;;;;17.82;43.03;100675.47;4110438;28;20432;-72
2023/06/03 00:11:37;;;;;;;8.02;3.25;;;;;;;17.75;43.16;100677.28;4106706;28;20046;-72
2023/06/03 00:13:40;;;;;;;12.02;3.25;;;;;;;17.73;43.49;100682.56;4110908;28;20408;-71
2023/06/03 00:15:43;;;;;;;10.23;3.65;;;;;;;17.71;43.37;100681.75;4110842;28;20039;-72
2023/06/03 00:17:46;;;;;;;12.48;3.35;;;;;;;17.70;43.14;100677.34;4090123;29;20075;-72
2023/06/03 00:19:49;;;;;;;10.60;3.15;;;;;;;17.61;43.44;100678.34;4107420;28;20072;-72
2023/06/03 00:21:54;;;;;;;9.45;3.00;;;;;;;17.59;43.51;100676.59;4107441;28;20054;-71
2023/06/03 00:23:56;;;;;;;;;;;;;;;17.61;43.39;100678.34;4111094;28;20050;-72
2023/06/03 00:26:00;;;;;;;14.30;3.50;;;;;;;17.68;43.38;100679.13;4095623;28;19923;-71
2023/06/03 00:28:04;;;;;;;8.50;2.78;;;;;;;17.53;43.60;100671.41;4103564;28;20035;-72
2023/06/03 00:30:08;;;;;;;9.90;3.13;;;;;;;17.50;43.65;100672.31;4110476;28;20165;-73
2023/06/03 00:32:11;;;;;;;9.25;2.70;;;;;;;17.45;44.10;100677.63;4107876;28;20066;-73
2023/06/03 00:34:15;;;;;;;10.00;3.47;;;;;;;17.68;43.50;100673.84;4107051;28;20502;-72
2023/06/03 00:36:18;;;;;;;11.38;3.33;;;;;;;17.59;43.85;100674.84;4110623;28;20133;-73
2023/06/03 00:38:21;;;;;;;8.80;2.92;;;;;;;17.52;44.09;100661.78;4096005;29;20049;-72
2023/06/03 00:40:24;;;;;;;15.32;3.63;;;;;;;17.51;44.14;100668.81;4095422;29;20047;-72
2023/06/03 00:42:26;;;;;;;9.45;3.08;;;;;;;17.50;43.97;100680.19;4093952;29;20420;-71
2023/06/03 00:44:31;;;;;;;11.27;3.50;;;;;;;17.43;44.13;100675.91;4093542;29;20071;-72
2023/06/03 00:46:35;;;;;;;8.88;3.47;;;;;;;17.44;44.15;100675.03;4108798;28;20039;-72
2023/06/03 00:48:39;;;;;;;11.80;3.45;;;;;;;17.52;44.22;100677.56;4107413;28;20035;-73
2023/06/03 00:50:42;;;;;;;10.18;3.10;;;;;;;17.34;44.56;100674.22;4096015;28;20146;-72
2023/06/03 00:52:46;;;;;;;9.10;3.67;;;;;;;17.43;44.56;100674.16;4091999;29;20043;-72
2023/06/03 00:54:49;;;;;;;9.15;3.25;;;;;;;17.17;44.99;100673.53;4109038;28;20035;-72
2023/06/03 00:56:52;;;;;;;10.38;3.22;;;;;;;17.17;45.08;100676.16;4109673;28;20031;-73
2023/06/03 00:58:55;;;;;;;9.57;3.67;;;;;;;17.18;45.16;100670.88;4095543;28;20086;-73
2023/06/03 01:01:02;;;;;;;9.85;4.35;;;;;;;17.19;44.85;100669.16;4109547;28;20154;-73
2023/06/03 01:03:13;;;;;;;6.32;2.75;;;;;;;17.14;45.23;100676.19;4104966;28;20045;-73
2023/06/03 01:05:16;;;;;;;7.85;2.97;;;;;;;17.10;45.63;100673.59;4095200;29;20054;-73
2023/06/03 01:07:30;;;;;;;11.50;3.67;;;;;;;17.18;45.30;100670.88;4092304;29;20043;-73
2023/06/03 01:09:45;;;;;;;9.50;3.17;;;;;;;17.14;45.29;100669.16;4108648;28;20525;-73
2023/06/03 01:12:03;;;;;;;8.27;3.10;;;;;;;17.13;45.30;100669.19;4108511;28;20390;-73
2023/06/03 01:14:12;;;;;;;8.23;3.47;;;;;;;17.19;45.21;100670.00;4102768;28;20122;-73
2023/06/03 01:16:18;;;;;;;8.75;3.53;;;;;;;17.22;45.24;100666.50;4103767;28;20419;-73
2023/06/03 01:18:22;;;;;;;8.32;3.00;;;;;;;17.19;45.28;100666.53;4076359;29;20058;-72
2023/06/03 01:20:26;;;;;;;9.23;3.30;;;;;;;17.09;45.50;100656.09;4095010;28;20043;-72
2023/06/03 01:22:40;;;;;;;9.32;3.17;;;;;;;17.15;45.75;100654.28;4093332;29;20040;-72
2023/06/03 01:24:45;;;;;;;12.77;4.13;;;;;;;17.15;46.02;100656.94;4109167;28;20054;-72
2023/06/03 01:26:48;;;;;;;8.73;3.80;;;;;;;17.09;46.50;100658.72;4105552;28;20043;-72
2023/06/03 01:28:51;;;;;;;8.95;3.90;;;;;;;17.05;46.54;100654.38;4094167;29;20110;-73
2023/06/03 01:30:55;;;;;;;10.75;3.95;;;;;;;17.00;46.87;100653.56;4106811;28;20077;-74
2023/06/03 01:32:58;;;;;;;14.75;4.05;;;;;;;16.97;47.02;100655.31;4107481;28;20062;-74
2023/06/03 01:35:02;;;;;;;10.40;3.70;;;;;;;16.91;47.20;100645.78;4111435;28;20038;-73
2023/06/03 01:37:06;;;;;;;10.60;3.35;;;;;;;16.90;47.46;100647.50;4108695;28;20102;-73
2023/06/03 01:39:11;;;;;;;11.55;4.00;;;;;;;16.85;47.81;100651.00;4108912;28;20043;-73
2023/06/03 01:41:16;;;;;;;11.68;3.35;;;;;;;16.77;48.10;100645.84;4094955;29;20086;-73
2023/06/03 01:43:20;;;;;;;12.85;4.25;;;;;;;16.73;48.65;100652.88;4109468;28;20046;-73
2023/06/03 01:45:23;;;;;;;15.20;4.60;;;;;;;16.71;48.64;100657.25;4094222;29;20051;-73
2023/06/03 01:47:26;;;;;;;10.63;4.35;;;;;;;16.71;48.86;100651.16;4097872;29;20066;-73
2023/06/03 01:49:31;;;;;;;13.30;3.72;;;;;;;16.73;48.99;100657.25;4097778;29;20054;-72
2023/06/03 01:51:35;;;;;;;10.75;4.72;;;;;;;16.66;49.17;100651.19;4114732;28;20489;-74
2023/06/03 01:53:39;;;;;;;10.98;4.65;;;;;;;16.66;49.41;100652.94;4113236;28;20070;-74
2023/06/03 01:55:42;;;;;;;8.13;3.55;;;;;;;16.57;49.18;100649.50;4111933;28;20035;-74
2023/06/03 01:57:48;;;;;;;13.32;4.43;;;;;;;16.47;49.17;100653.09;4096017;29;20039;-74
2023/06/03 01:59:52;;;;;;;12.63;4.05;;;;;;;16.46;49.63;100651.34;4111367;23;20102;-70
2023/06/03 02:01:57;;;;;;;8.07;3.30;;;;;;;16.42;49.77;100654.84;4103460;28;20039;-71
2023/06/03 02:04:00;;;;;;;;;;;;;;;16.32;49.98;100656.66;4108188;28;20342;-70
2023/06/03 02:06:03;;;;;;;11.52;4.13;;;;;;;16.37;49.74;100662.75;4106163;28;19926;-71
2023/06/03 02:08:07;;;;;;;11.23;3.50;;;;;;;16.30;49.74;100661.06;4097876;29;20079;-72
2023/06/03 02:10:11;;;;;;;13.20;4.50;;;;;;;16.34;50.33;100657.53;4098008;29;20043;-70
2023/06/03 02:12:15;;;;;;;8.80;3.33;;;;;;;16.28;50.25;100659.31;4097557;29;20039;-71
2023/06/03 02:14:19;;;;;;;19.48;3.88;;;;;;;16.25;50.40;100656.72;4082709;29;20040;-72
2023/06/03 02:16:22;;;;;;;11.75;4.45;;;;;;;16.23;50.06;100660.22;4098305;29;20155;-72
2023/06/03 02:18:26;;;;;;;10.60;4.20;;;;;;;16.20;50.03;100659.38;4082018;29;20054;-71
2023/06/03 02:20:29;;;;;;;10.15;3.92;;;;;;;16.15;50.38;100661.13;4081724;29;20052;-71
2023/06/03 02:22:32;;;;;;;11.07;4.00;;;;;;;16.10;50.59;100662.94;4096078;29;20454;-71
2023/06/03 02:24:38;;;;;;;12.70;4.57;;;;;;;16.14;50.53;100654.16;4097670;29;20039;-70
2023/06/03 02:26:49;;;;;;;12.73;3.95;;;;;;;16.00;51.04;100662.97;4098351;29;20073;-71
2023/06/03 02:28:52;;;;;;;13.77;5.00;;;;;;;15.97;51.19;100652.47;4096980;28;20043;-71
2023/06/03 02:30:57;;;;;;;9.55;4.10;;;;;;;15.91;51.13;100660.38;4081813;29;20047;-71
2023/06/03 02:33:00;;;;;;;11.60;4.25;;;;;;;15.81;51.57;100656.94;4081365;29;20044;-71
2023/06/03 02:35:03;;;;;;;10.23;4.18;;;;;;;15.79;51.17;100660.44;4098778;29;20071;-72
2023/06/03 02:37:06;;;;;;;10.80;4.30;;;;;;;15.74;51.56;100659.53;4097496;29;20070;-70
2023/06/03 02:39:10;;;;;;;8.68;3.67;;;;;;;15.72;51.50;100664.81;4097477;29;20035;-70
2023/06/03 02:41:14;;;;;;;16.20;4.55;;;;;;;15.67;51.71;100661.34;4097620;29;20050;-70
2023/06/03 02:43:17;;;;;;;7.43;3.40;;;;;;;15.62;52.36;100661.31;4098703;29;20047;-71
2023/06/03 02:45:20;;;;;;;12.90;4.10;;;;;;;15.68;52.23;100661.34;4081292;29;20080;-71
2023/06/03 02:47:24;;;;;;;13.80;5.25;;;;;;;15.69;51.75;100662.19;4081583;29;20055;-71
2023/06/03 02:49:27;;;;;;;7.50;3.38;;;;;;;15.59;52.18;100665.72;4097405;28;20050;-71
2023/06/03 02:51:30;;;;;;;18.60;3.88;;;;;;;15.63;52.55;100659.59;4097517;29;20043;-71
2023/06/03 02:53:33;;;;;;;12.27;4.07;;;;;;;15.61;52.84;100669.19;4095302;29;20094;-72
2023/06/03 02:55:39;;;;;;;12.23;4.20;;;;;;;15.63;52.56;100663.09;4097374;29;20075;-71
2023/06/03 02:57:42;;;;;;;11.52;4.05;;;;;;;15.63;52.23;100672.72;4081493;29;20099;-71
2023/06/03 02:59:46;;;;;;;13.40;3.90;;;;;;;15.65;52.48;100674.44;4097399;29;20109;-71
2023/06/03 03:01:49;;;;;;;9.98;4.13;;;;;;;15.66;52.71;100678.78;4098377;29;20035;-71
2023/06/03 03:03:53;;;;;;;9.10;3.67;;;;;;;15.59;52.32;100681.44;4098360;29;20118;-71
2023/06/03 03:06:01;;;;;;;11.63;4.35;;;;;;;15.54;52.64;100678.84;4081517;29;20046;-71
2023/06/03 03:08:04;;;;;;;7.72;3.95;;;;;;;15.51;53.06;100686.72;4097707;29;20116;-71
2023/06/03 03:10:08;;;;;;;13.45;3.90;;;;;;;15.51;52.52;100690.19;4097328;29;20047;-72
2023/06/03 03:12:11;;;;;;;13.23;3.70;;;;;;;15.45;52.30;100691.94;4080587;29;20481;-71
2023/06/03 03:14:18;;;;;;;11.88;3.97;;;;;;;15.44;52.88;100687.59;4096897;29;20047;-71
2023/06/03 03:16:24;;;;;;;11.05;4.13;;;;;;;15.45;53.25;100690.22;4081211;29;20040;-72
2023/06/03 03:18:28;;;;;;;9.80;3.92;;;;;;;15.44;52.88;100691.09;4095519;29;20050;-72
2023/06/03 03:20:32;;;;;;;8.63;3.63;;;;;;;15.40;53.00;100696.34;4080942;29;20047;-71
2023/06/03 03:22:40;;;;;;;14.23;4.20;;;;;;;15.42;53.23;100689.34;4096517;29;20043;-71
2023/06/03 03:24:43;;;;;;;11.15;4.35;;;;;;;15.42;53.08;100686.72;4097963;29;20038;-71
2023/06/03 03:26:47;;;;;;;11.13;4.32;;;;;;;15.47;53.01;100692.84;4081228;29;20695;-69
2023/06/03 03:28:52;;;;;;;14.52;4.85;;;;;;;15.43;53.27;100686.72;4097023;29;20054;-72
2023/06/03 03:30:56;;;;;;;12.13;4.28;;;;;;;15.40;53.80;100691.09;4081301;29;20529;-71
2023/06/03 03:33:00;;;;;;;10.43;4.30;;;;;;;15.34;54.02;100684.97;4096018;29;20039;-72
2023/06/03 03:35:14;;;;;;;10.60;4.25;;;;;;;15.34;53.67;100687.59;4096939;29;20118;-71
2023/06/03 03:37:20;;;;;;;9.40;4.15;;;;;;;15.38;53.18;100690.25;4096810;29;20046;-71
2023/06/03 03:39:23;;;;;;;7.00;3.40;;;;;;;15.27;54.24;100691.09;4094639;29;20041;-71
2023/06/03 03:41:29;;;;;;;11.10;4.60;;;;;;;15.33;54.05;100693.75;4097110;29;20043;-72
2023/06/03 03:43:33;;;;;;;13.87;5.07;;;;;;;15.24;53.76;100695.50;4080231;29;20091;-71
2023/06/03 03:45:38;;;;;;;11.88;4.15;;;;;;;15.21;53.31;100696.34;4096390;29;20110;-71
2023/06/03 03:47:49;;;;;;;8.68;4.10;;;;;;;15.18;54.33;100701.59;4096590;29;20505;-71
2023/06/03 03:49:52;;;;;;;8.77;4.03;;;;;;;15.19;53.94;100698.13;4094165;29;20039;-72
2023/06/03 03:52:03;;;;;;;10.77;4.00;;;;;;;15.17;53.97;100703.38;4096743;29;20441;-71
2023/06/03 03:54:07;;;;;;;16.60;4.18;;;;;;;15.16;53.56;100691.13;4096297;29;20619;-72
2023/06/03 03:56:12;;;;;;;;;;;;;;;15.21;54.44;100698.97;4096682;29;20051;-71
2023/06/03 03:58:26;;;;;;;7.30;3.60;;;;;;;15.13;53.96;100698.13;4068056;29;19923;-71
2023/06/03 04:00:33;;;;;;;13.15;3.83;;;;;;;15.14;54.81;100694.63;4079978;29;20048;-72
2023/06/03 04:02:41;;;;;;;9.88;3.58;;;;;;;15.17;54.24;100689.38;4095988;29;20039;-71
2023/06/03 04:04:45;;;;;;;10.73;4.32;;;;;;;15.17;54.27;100697.22;4080400;29;20047;-70
2023/06/03 04:06:48;;;;;;;10.93;4.53;;;;;;;15.18;54.90;100691.13;4097556;29;20035;-70
2023/06/03 04:08:54;;;;;;;11.27;4.68;;;;;;;15.16;54.71;100692.88;4096891;29;20038;-71
2023/06/03 04:10:59;;;;;;;13.05;4.80;;;;;;;15.17;55.04;100692.88;4096682;29;20146;-71
2023/06/03 04:13:06;;;;;;;13.20;4.60;;;;;;;15.27;54.69;100692.88;4079475;29;20040;-71
2023/06/03 04:15:12;;;;;;;10.27;4.13;;;;;;;15.25;54.04;100695.47;4096119;29;20089;-71
2023/06/03 04:17:19;;;;;;;10.52;4.85;;;;;;;15.26;54.78;100694.63;4095959;29;20047;-72
2023/06/03 04:19:27;;;;;;;12.63;4.20;;;;;;;15.23;54.28;100693.72;4097416;29;20086;-71
2023/06/03 04:21:31;;;;;;;12.57;4.25;;;;;;;15.25;55.07;100692.88;4094713;29;20102;-71
2023/06/03 04:23:34;;;;;;;11.38;3.75;;;;;;;15.29;54.28;100694.63;4095862;29;20577;-70
2023/06/03 04:25:36;;;;;;;12.85;4.63;;;;;;;15.38;54.45;100701.59;4095844;29;20547;-72
2023/06/03 04:27:41;;;;;;;12.88;4.38;;;;;;;15.38;53.59;100704.19;4080503;29;20051;-72
2023/06/03 04:29:46;;;;;;;9.23;4.00;;;;;;;15.38;54.53;100706.81;4094879;29;20031;-72
2023/06/03 04:31:49;;;;;;;13.65;4.32;;;;;;;15.43;54.08;100702.44;4097656;29;20600;-72
2023/06/03 04:33:52;;;;;;;8.68;3.50;;;;;;;15.43;54.00;100707.66;4095221;29;20039;-71
2023/06/03 04:35:56;;;;;;;10.40;4.30;;;;;;;15.45;53.71;100705.03;4096392;29;20039;-74
2023/06/03 04:37:59;;;;;;;15.10;4.57;;;;;;;15.50;53.27;100711.16;4078765;29;20056;-72
2023/06/03 04:40:04;;;;;;;12.15;3.88;;;;;;;15.39;53.74;100705.06;4095698;28;20565;-73
2023/06/03 04:42:10;;;;;;;9.93;4.50;;;;;;;15.41;54.08;100708.56;4096104;29;20705;-72
2023/06/03 04:44:15;;;;;;;10.27;4.45;;;;;;;15.41;54.01;100698.09;4080153;29;20036;-73
2023/06/03 04:46:18;;;;;;;13.85;4.60;;;;;;;15.38;53.87;100705.97;4065315;29;20079;-74
2023/06/03 04:48:22;;;;;;;11.77;4.55;;;;;;;15.42;54.37;100699.81;4096959;29;20035;-73
2023/06/03 04:50:27;;;;;;;10.23;4.20;;;;;;;15.42;54.17;100699.81;4079784;29;20036;-66
2023/06/03 04:52:32;;;;;;;11.73;4.30;;;;;;;15.65;54.95;100697.16;4094051;29;20047;-67
2023/06/03 04:54:35;;;;;;;8.65;3.78;;;;;;;15.74;53.13;100693.63;4077817;29;20048;-66
2023/06/03 04:56:38;;;;;;;9.95;4.10;;;;;;;15.97;53.06;100697.06;4095344;28;20043;-66
2023/06/03 04:58:42;;;;;;;10.90;3.70;;;;;;;16.24;53.43;100697.81;4081631;29;20043;-65
2023/06/03 05:00:53;;;;;;;7.72;3.75;;;;;;;16.63;51.85;100697.56;4082213;29;20039;-66
2023/06/03 05:02:59;;;;;;;8.13;3.40;;;;;;;16.70;51.27;100688.78;4097700;29;20074;-67
2023/06/03 05:05:06;;;;;;;10.40;3.45;;;;;;;16.71;51.61;100688.75;4094536;29;20035;-66
2023/06/03 05:07:10;;;;;;;9.85;3.92;;;;;;;16.87;50.65;100693.91;4078757;29;20044;-67
2023/06/03 05:09:14;;;;;;;9.02;4.30;;;;;;;16.73;50.38;100688.75;4097113;28;20570;-66
2023/06/03 05:11:20;;;;;;;9.85;4.15;;;;;;;16.61;50.87;100694.97;4097807;28;20058;-67
2023/06/03 05:13:24;;;;;;;11.05;3.33;;;;;;;16.49;50.35;100692.44;4095275;28;20035;-66
2023/06/03 05:15:27;;;;;;;9.88;4.43;;;;;;;16.40;50.82;100696.84;4100207;29;20066;-66
2023/06/03 05:17:33;;;;;;;11.85;4.22;;;;;;;16.40;51.06;100690.75;4084909;29;20046;-66
2023/06/03 05:19:37;;;;;;;10.85;3.90;;;;;;;16.40;51.49;100688.97;4101053;29;20094;-66
2023/06/03 05:21:41;;;;;;;11.52;4.43;;;;;;;16.49;50.81;100692.44;4101201;29;20059;-66
2023/06/03 05:23:46;;;;;;;11.23;4.13;;;;;;;16.56;50.52;100700.25;4084212;29;20075;-68
2023/06/03 05:25:49;;;;;;;7.18;3.80;;;;;;;16.46;51.00;100697.72;4096684;29;20469;-66
2023/06/03 05:28:18;;;;;;;8.70;3.90;;;;;;;16.42;50.33;100698.59;4077845;29;20032;-66
2023/06/03 05:30:20;;;;;;;14.65;4.53;;;;;;;16.35;51.02;100698.66;4082947;29;20063;-66
2023/06/03 05:32:23;;;;;;;10.38;3.80;;;;;;;16.35;51.03;100700.38;4082046;29;20040;-66
2023/06/03 05:34:28;;;;;;;10.57;4.50;;;;;;;16.48;50.29;100691.53;4084692;29;20097;-67
2023/06/03 05:36:31;;;;;;;10.93;3.85;;;;;;;16.47;51.21;100691.56;4084820;29;20485;-66
2023/06/03 05:38:36;;;;;;;8.48;4.30;;;;;;;16.67;50.46;100692.28;4065807;29;20066;-66
2023/06/03 05:40:40;;;;;;;9.13;3.80;;;;;;;16.60;50.65;100700.22;4099892;29;20043;-66
2023/06/03 05:42:47;;;;;;;9.43;4.45;;;;;;;16.63;50.40;100698.47;4101301;29;20130;-66
2023/06/03 05:44:52;;;;;;;9.18;4.57;;;;;;;16.61;50.73;100691.47;4084832;29;20055;-66
2023/06/03 05:46:54;;;;;;;10.50;3.85;;;;;;;16.77;50.40;100700.13;4095849;29;20089;-66
2023/06/03 05:48:59;;;;;;;;;;;;;;;16.67;50.59;100694.91;4085313;29;20074;-67
2023/06/03 05:51:03;;;;;;;8.52;4.10;;;;;;;16.71;50.63;100701.03;4100446;29;19970;-66
2023/06/03 05:53:07;;;;;;;9.75;4.78;;;;;;;16.70;50.62;100697.50;4099993;29;20126;-66
2023/06/03 05:55:10;;;;;;;10.60;5.07;;;;;;;16.87;49.64;100696.53;4100782;29;20078;-67
2023/06/03 05:57:13;;;;;;;10.85;4.35;;;;;;;16.86;49.41;100694.78;4096613;28;20047;-67
2023/06/03 05:59:19;;;;;;;15.25;5.03;;;;;;;16.86;49.75;100697.41;4098733;29;20055;-67
2023/06/03 06:01:22;;;;;;;14.57;4.50;;;;;;;16.98;49.46;100694.72;4084342;29;20068;-66
2023/06/03 06:03:25;;;;;;;12.25;5.30;;;;;;;17.02;49.30;100696.44;4065636;29;20063;-66
2023/06/03 06:05:58;;;;;;;8.95;4.38;;;;;;;17.08;49.60;100696.41;4096828;28;20129;-73
2023/06/03 06:08:03;;;;;;;11.55;4.10;;;;;;;17.19;48.68;100695.44;4094217;28;20114;-75
2023/06/03 06:10:07;;;;;;;8.98;4.60;;;;;;;17.09;48.80;100700.75;4102054;28;20497;-74
2023/06/03 06:12:10;;;;;;;15.68;5.43;;;;;;;17.04;49.06;100691.16;4084030;29;20062;-75
2023/06/03 06:14:13;;;;;;;13.02;4.47;;;;;;;17.08;48.97;100701.66;4100392;29;20468;-75
2023/06/03 06:16:17;;;;;;;9.67;4.60;;;;;;;17.12;49.78;100693.72;4100223;29;20538;-75
2023/06/03 06:18:22;;;;;;;13.63;4.40;;;;;;;17.31;48.93;100695.28;4068721;29;20133;-73
2023/06/03 06:20:25;;;;;;;11.25;4.57;;;;;;;17.35;48.78;100696.16;4084434;29;20043;-74
2023/06/03 06:22:29;;;;;;;11.45;4.88;;;;;;;17.43;48.41;100691.66;4100963;29;20047;-74
2023/06/03 06:24:33;;;;;;;7.50;3.20;;;;;;;17.40;48.24;100692.56;4100049;28;20129;-76
2023/06/03 06:26:40;;;;;;;10.80;4.15;;;;;;;17.50;48.30;100695.13;4100386;29;20058;-73
2023/06/03 06:28:45;;;;;;;12.27;4.30;;;;;;;17.55;48.64;100691.56;4088404;29;20043;-73
2023/06/03 06:30:48;;;;;;;11.60;4.63;;;;;;;17.65;47.96;100689.66;4104208;28;20086;-73
2023/06/03 06:32:52;;;;;;;9.50;3.78;;;;;;;17.70;48.47;100693.13;4107614;28;20093;-72
2023/06/03 06:35:01;;;;;;;11.82;5.13;;;;;;;17.79;48.19;100692.16;4096981;28;20043;-74
2023/06/03 06:37:04;;;;;;;11.23;4.40;;;;;;;17.95;47.76;100698.13;4104062;28;20039;-74
2023/06/03 06:39:23;;;;;;;;;;;;;;;17.79;47.96;100693.00;4107120;28;20048;-75
2023/06/03 06:41:28;;;;;;;10.68;5.90;;;;;;;17.98;47.98;100702.50;4106484;28;19978;-73
2023/06/03 06:43:35;;;;;;;14.93;4.40;;;;;;;18.02;47.23;100698.91;4093838;28;20089;-75
2023/06/03 06:45:38;;;;;;;8.98;4.75;;;;;;;18.16;47.73;100696.97;4109428;28;20051;-76
2023/06/03 06:47:43;;;;;;;13.30;4.43;;;;;;;18.12;47.69;100698.78;4104320;28;20043;-76
2023/06/03 06:49:47;;;;;;;9.73;4.40;;;;;;;18.27;47.25;100691.59;4105735;28;20130;-75
2023/06/03 06:51:53;;;;;;;12.10;3.95;;;;;;;18.31;47.28;100691.50;4089974;29;20064;-73
2023/06/03 06:53:59;;;;;;;9.95;4.05;;;;;;;18.34;47.14;100698.50;4098891;28;20402;-74
2023/06/03 06:56:05;;;;;;;14.05;5.07;;;;;;;18.36;46.98;100688.81;4083997;29;20039;-74
2023/06/03 06:58:35;;;;;;;9.38;3.95;;;;;;;18.53;46.43;100700.84;4081949;29;20040;-75
2023/06/03 07:00:39;;;;;;;9.75;3.72;;;;;;;18.46;46.94;100693.03;4098568;28;20520;-73
2023/06/03 07:02:42;;;;;;;9.80;4.50;;;;;;;18.61;46.47;100698.97;4083854;29;20441;-75
2023/06/03 07:04:45;;;;;;;10.73;4.72;;;;;;;18.67;46.59;100704.16;4084015;29;20056;-74
2023/06/03 07:06:47;;;;;;;9.63;4.50;;;;;;;18.45;46.85;100699.19;4085764;29;20067;-75
2023/06/03 07:08:50;;;;;;;13.88;4.63;;;;;;;18.58;46.94;100709.56;4080782;29;20467;-75
2023/06/03 07:10:58;;;;;;;9.35;4.18;;;;;;;18.72;46.34;100696.16;4087003;29;20032;-75
2023/06/03 07:13:02;;;;;;;10.07;5.10;;;;;;;18.78;46.66;100693.47;4104134;28;20472;-75
2023/06/03 07:15:07;;;;;;;8.80;4.40;;;;;;;18.92;46.50;100703.78;4102056;28;20543;-74
2023/06/03 07:17:10;;;;;;;15.02;4.15;;;;;;;19.02;45.42;100694.84;4098751;28;20043;-75
2023/06/03 07:19:14;;;;;;;12.57;4.50;;;;;;;19.08;46.22;100701.78;4097878;28;20043;-76
2023/06/03 07:21:25;;;;;;;10.30;5.22;;;;;;;19.23;45.36;100698.00;4084287;29;20501;-74
2023/06/03 07:23:31;;;;;;;9.00;3.90;;;;;;;19.23;44.92;100696.25;4080607;29;20450;-75
2023/06/03 07:25:38;;;;;;;9.48;4.20;;;;;;;19.26;45.25;100696.19;4086113;29;20039;-75
2023/06/03 07:27:43;;;;;;;8.93;3.90;;;;;;;19.17;44.89;100701.59;4092058;28;20529;-76
2023/06/03 07:29:46;;;;;;;10.63;4.63;;;;;;;19.27;45.55;100697.91;4081993;29;20046;-74
2023/06/03 07:31:50;;;;;;;7.82;4.47;;;;;;;19.49;44.98;100690.50;4101873;28;20517;-75
2023/06/03 07:33:55;;;;;;;7.90;3.50;;;;;;;19.33;45.37;100691.66;4098314;28;20042;-76
2023/06/03 07:36:21;;;;;;;6.30;3.78;;;;;;;19.42;45.02;100687.97;4100924;28;20053;-75
2023/06/03 07:38:56;;;;;;;10.38;4.50;;;;;;;19.49;44.99;100685.22;4096677;28;20062;-75
2023/06/03 07:41:00;;;;;;;12.65;4.82;;;;;;;19.68;44.61;100679.56;4077891;29;20069;-75
2023/06/03 07:43:03;;;;;;;8.98;4.78;;;;;;;19.77;44.14;100686.41;4096858;28;20035;-75
2023/06/03 07:45:07;;;;;;;13.02;4.65;;;;;;;19.76;43.95;100684.72;4096099;28;20125;-75
2023/06/03 07:47:13;;;;;;;13.60;3.97;;;;;;;19.67;45.18;100680.47;4098114;28;20149;-76
2023/06/03 07:49:17;;;;;;;7.22;3.80;;;;;;;19.95;43.95;100679.94;4098266;28;20038;-76
2023/06/03 07:51:20;;;;;;;11.77;4.50;;;;;;;19.99;43.93;100681.59;4081786;29;20040;-75
2023/06/03 07:53:24;;;;;;;6.10;3.05;;;;;;;20.04;44.11;100692.94;4097281;28;20126;-75
2023/06/03 07:55:33;;;;;;;11.18;3.78;;;;;;;20.13;43.87;100692.72;4097542;28;20069;-75
2023/06/03 07:57:43;;;;;;;11.50;5.55;;;;;;;20.38;42.05;100692.19;4096250;28;20043;-76
2023/06/03 07:59:53;;;;;;;12.10;5.28;;;;;;;20.27;42.90;100686.28;4121186;23;20073;-73
2023/06/03 08:01:58;;;;;;;8.52;3.75;;;;;;;20.19;43.00;100686.44;4142008;28;20034;-73
2023/06/03 08:04:04;;;;;;;8.77;3.80;;;;;;;20.31;43.08;100683.56;4132739;28;20064;-73
2023/06/03 08:06:08;;;;;;;8.50;4.35;;;;;;;20.50;42.27;100689.28;4130596;28;20193;-73
2023/06/03 08:08:12;;;;;;;13.73;5.13;;;;;;;20.56;42.11;100683.84;4144367;28;20050;-73
2023/06/03 08:10:23;;;;;;;11.60;4.32;;;;;;;20.57;42.43;100695.28;4137462;28;20501;-73
2023/06/03 08:12:30;;;;;;;12.57;5.22;;;;;;;20.63;42.24;100683.69;4146394;28;20033;-73
2023/06/03 08:14:35;;;;;;;8.98;4.38;;;;;;;20.67;42.36;100688.03;4147375;28;20046;-74
2023/06/03 08:16:37;;;;;;;13.07;4.72;;;;;;;20.84;41.22;100691.13;4114670;28;20049;-73
2023/06/03 08:18:43;;;;;;;14.40;3.95;;;;;;;20.73;41.61;100687.88;4148185;28;20060;-73
2023/06/03 08:20:48;;;;;;;8.38;4.10;;;;;;;20.75;42.25;100694.88;4130616;28;20467;-73
2023/06/03 08:22:52;;;;;;;8.90;4.20;;;;;;;20.82;42.08;100694.72;4147398;28;20078;-73
2023/06/03 08:24:54;;;;;;;10.23;4.15;;;;;;;20.88;41.38;100695.44;4148042;28;20065;-73
2023/06/03 08:26:57;;;;;;;10.43;3.85;;;;;;;20.99;41.33;100691.66;4130513;28;20046;-73
2023/06/03 08:29:00;;;;;;;15.60;4.00;;;;;;;21.08;41.17;100694.06;4148065;28;20041;-73
2023/06/03 08:31:03;;;;;;;8.40;5.25;;;;;;;21.19;40.97;100685.88;4130390;28;20061;-73
2023/06/03 08:33:06;;;;;;;12.73;4.53;;;;;;;21.19;41.14;100689.38;4147451;28;20044;-73
2023/06/03 08:35:21;;;;;;;8.90;4.03;;;;;;;21.20;40.66;100688.47;4145634;28;20049;-73
2023/06/03 08:37:25;;;;;;;6.65;3.47;;;;;;;21.26;40.98;100692.69;4126347;28;20132;-73
2023/06/03 08:39:28;;;;;;;9.00;4.00;;;;;;;21.40;40.90;100692.34;4126507;28;20046;-73
2023/06/03 08:41:37;;;;;;;8.80;4.05;;;;;;;21.54;41.17;100695.53;4144549;28;20041;-72
2023/06/03 08:43:49;;;;;;;8.85;4.32;;;;;;;21.56;40.77;100687.53;4144185;28;20038;-72
2023/06/03 08:46:00;;;;;;;5.43;2.72;;;;;;;21.55;40.58;100693.72;4140899;28;20045;-73
2023/06/03 08:48:12;;;;;;;7.55;4.22;;;;;;;21.82;39.76;100697.38;4143542;28;20435;-73
2023/06/03 08:50:17;;;;;;;21.00;4.15;;;;;;;21.89;39.14;100693.66;4140085;28;20092;-73
2023/06/03 08:52:22;;;;;;;10.90;4.07;;;;;;;21.86;39.72;100690.22;4141614;28;20030;-73
2023/06/03 08:54:31;;;;;;;7.90;3.80;;;;;;;21.84;40.10;100692.91;4139816;28;20070;-73
2023/06/03 08:56:34;;;;;;;12.05;3.00;;;;;;;21.84;41.02;100687.63;4142606;28;20088;-72
2023/06/03 08:58:43;;;;;;;7.97;3.80;;;;;;;21.96;39.98;100684.63;4142746;28;20099;-72
2023/06/03 09:00:47;;;;;;;12.02;4.85;;;;;;;22.24;38.97;100689.09;4143829;28;20034;-73
2023/06/03 09:02:51;;;;;;;7.22;3.45;;;;;;;22.09;40.09;100678.94;4142352;28;20042;-73
2023/06/03 09:04:56;;;;;;;9.73;3.78;;;;;;;22.23;39.01;100692.63;4137484;28;20073;-73
2023/06/03 09:07:01;;;;;;;9.23;3.78;;;;;;;22.23;38.79;100682.03;4141987;28;20049;-73
2023/06/03 09:09:04;;;;;;;9.98;4.55;;;;;;;22.37;38.61;100700.22;4126900;28;20504;-72
2023/06/03 09:11:12;;;;;;;9.25;4.22;;;;;;;22.31;38.30;100695.94;4141460;28;20142;-71
2023/06/03 09:13:17;;;;;;;7.10;3.42;;;;;;;22.15;39.30;100689.34;4124522;28;20034;-71
2023/06/03 09:15:20;;;;;;;11.30;3.85;;;;;;;22.21;39.15;100688.28;4142465;28;20129;-72
2023/06/03 09:17:24;;;;;;;8.70;3.88;;;;;;;22.35;38.88;100686.13;4123480;28;20986;-72
2023/06/03 09:19:27;;;;;;;6.47;3.78;;;;;;;22.55;39.40;100690.81;4142647;28;20053;-74
2023/06/03 09:21:31;;;;;;;10.88;4.40;;;;;;;22.81;38.70;100689.09;4121159;28;20080;-74
2023/06/03 09:23:35;;;;;;;7.20;3.90;;;;;;;22.78;37.65;100678.56;4141508;28;20502;-74
2023/06/03 09:25:38;;;;;;;7.65;4.20;;;;;;;22.68;37.42;100685.97;4142139;28;20164;-74
2023/06/03 09:27:42;;;;;;;9.55;3.80;;;;;;;22.49;38.19;100678.63;4125112;28;20043;-73
2023/06/03 09:29:45;;;;;;;14.98;4.28;;;;;;;22.59;38.34;100688.91;4141221;28;20037;-74
2023/06/03 09:31:49;;;;;;;6.70;3.70;;;;;;;22.58;38.48;100690.69;4143478;28;20029;-73
2023/06/03 09:33:52;;;;;;;9.10;4.75;;;;;;;22.75;37.72;100687.53;4134276;28;20054;-75
2023/06/03 09:36:12;;;;;;;6.80;3.63;;;;;;;22.74;37.79;100682.28;4142844;28;20041;-73
2023/06/03 09:38:16;;;;;;;7.18;3.85;;;;;;;22.78;38.14;100689.19;4142436;28;20046;-74
2023/06/03 09:40:28;;;;;;;9.05;3.75;;;;;;;22.88;37.87;100680.03;4142522;28;20042;-73